createdAt,value
2023-03-13T00:00:06.434Z,61.96
2023-03-13T00:05:09.132Z,62.03
2023-03-13T00:10:15.424Z,62.56
2023-03-13T00:15:20.375Z,63.16
2023-03-13T00:20:22.542Z,63.53
2023-03-13T00:25:24.333Z,63.55
2023-03-13T00:30:26.230Z,63.65
2023-03-13T00:35:29.190Z,63.74
2023-03-13T00:40:34.604Z,63.87
2023-03-13T00:45:37.013Z,64.10
2023-03-13T00:50:42.181Z,64.44
2023-03-13T00:56:01.547Z,64.58
2023-03-13T01:01:12.236Z,64.95
2023-03-13T01:06:17.505Z,65.11
2023-03-13T01:11:22.082Z,65.37
2023-03-13T01:16:25.001Z,65.72
2023-03-13T01:21:29.446Z,65.82
2023-03-13T01:26:31.295Z,66.39
2023-03-13T01:31:35.115Z,66.68
2023-03-13T01:36:38.179Z,66.81
2023-03-13T01:41:40.173Z,67.06
2023-03-13T01:46:42.225Z,66.91
2023-03-13T01:51:53.858Z,66.95
2023-03-13T01:57:13.136Z,67.62
2023-03-13T02:02:21.222Z,68.05
2023-03-13T02:07:49.458Z,68.41
2023-03-13T02:12:52.201Z,68.72
2023-03-13T02:17:55.058Z,68.87
2023-03-13T02:23:46.934Z,69.22
2023-03-13T02:28:48.703Z,69.82
2023-03-13T02:33:51.921Z,69.82
2023-03-13T02:39:02.703Z,70.12
2023-03-13T02:44:07.699Z,70.41
2023-03-13T02:49:28.943Z,70.61
2023-03-13T02:54:35.951Z,70.83
2023-03-13T02:59:37.934Z,70.71
2023-03-13T03:04:39.799Z,70.32
2023-03-13T03:09:41.574Z,70.32
2023-03-13T03:14:47.133Z,70.45
2023-03-13T03:19:49.437Z,70.72
2023-03-13T03:24:51.467Z,70.73
2023-03-13T03:29:53.297Z,70.94
2023-03-13T03:34:56.136Z,71.15
2023-03-13T03:39:58.722Z,71.16
2023-03-13T03:45:02.265Z,71.19
2023-03-13T03:50:04.899Z,71.46
2023-03-13T03:55:10.567Z,71.44
2023-03-13T04:00:15.916Z,71.97
2023-03-13T04:05:20.898Z,71.79
2023-03-13T04:10:23.357Z,71.91
2023-03-13T04:15:26.603Z,72.09
2023-03-13T04:20:29.047Z,72.28
2023-03-13T04:25:31.141Z,72.40
2023-03-13T04:30:35.055Z,72.63
2023-03-13T04:35:54.674Z,72.19
2023-03-13T04:41:17.918Z,72.12
2023-03-13T04:46:28.340Z,72.02
2023-03-13T04:51:50.534Z,71.91
2023-03-13T04:57:15.001Z,72.17
2023-03-13T05:06:31.810Z,72.34
2023-03-13T05:11:51.084Z,72.41
2023-03-13T05:17:04.388Z,72.56
2023-03-13T05:22:29.555Z,72.68
2023-03-13T05:27:48.706Z,72.67
2023-03-13T05:33:10.756Z,72.95
2023-03-13T05:38:38.922Z,72.71
2023-03-13T05:43:44.260Z,72.82
2023-03-13T05:49:03.546Z,73.02
2023-03-13T05:54:21.627Z,72.67
2023-03-13T05:59:51.291Z,72.52
2023-03-13T06:05:16.526Z,72.11
2023-03-13T06:10:19.636Z,72.04
2023-03-13T06:15:22.457Z,71.64
2023-03-13T06:20:48.022Z,71.65
2023-03-13T06:25:49.788Z,71.43
2023-03-13T06:30:51.758Z,70.83
2023-03-13T06:35:56.902Z,70.05
2023-03-13T06:40:59.272Z,69.13
2023-03-13T06:46:05.353Z,68.27
2023-03-13T06:51:11.978Z,67.75
2023-03-13T06:56:14.515Z,67.51
2023-03-13T07:01:18.063Z,66.25
2023-03-13T07:06:19.995Z,65.11
2023-03-13T07:11:21.753Z,64.52
2023-03-13T07:16:25.136Z,63.92
2023-03-13T07:21:27.106Z,64.41
2023-03-13T07:26:28.891Z,64.67
2023-03-13T07:31:33.918Z,64.21
2023-03-13T07:36:36.288Z,63.72
2023-03-13T07:41:40.062Z,63.09
2023-03-13T07:46:42.043Z,62.72
2023-03-13T07:51:45.884Z,62.29
2023-03-13T07:56:47.663Z,61.72
2023-03-13T08:01:49.502Z,61.42
2023-03-13T08:06:52.510Z,60.73
2023-03-13T08:11:56.314Z,60.28
2023-03-13T08:16:58.229Z,59.94
2023-03-13T08:22:00.045Z,59.34
2023-03-13T08:27:01.808Z,59.95
2023-03-13T08:32:03.688Z,60.84
2023-03-13T08:37:05.482Z,61.06
2023-03-13T08:42:11.277Z,60.78
2023-03-13T08:47:13.034Z,59.82
2023-03-13T08:52:18.554Z,59.54
2023-03-13T08:57:20.463Z,59.20
2023-03-13T09:02:22.282Z,59.19
2023-03-13T09:07:24.421Z,59.55
2023-03-13T09:12:31.160Z,59.31
2023-03-13T09:17:33.280Z,59.07
2023-03-13T09:22:35.132Z,58.86
2023-03-13T09:27:38.137Z,58.04
2023-03-13T09:32:39.902Z,57.50
2023-03-13T09:37:41.633Z,56.60
2023-03-13T09:42:51.435Z,56.06
2023-03-13T09:48:04.274Z,54.45
2023-03-13T09:53:15.032Z,54.28
2023-03-13T09:58:30.677Z,53.49
2023-03-13T10:03:51.533Z,54.12
2023-03-13T10:08:53.546Z,54.72
2023-03-13T10:14:18.887Z,54.30
2023-03-13T10:19:31.015Z,53.61
2023-03-13T10:24:47.444Z,52.86
2023-03-13T10:29:49.178Z,53.27
2023-03-13T10:35:01.411Z,52.75
2023-03-13T10:40:12.760Z,52.37
2023-03-13T10:45:19.970Z,51.94
2023-03-13T10:50:25.129Z,52.37
2023-03-13T10:55:27.095Z,52.51
2023-03-13T11:00:38.774Z,52.58
2023-03-13T11:05:45.389Z,52.79
2023-03-13T11:10:59.446Z,52.61
2023-03-13T11:16:28.238Z,53.26
2023-03-13T11:21:56.120Z,55.61
2023-03-13T11:27:15.238Z,54.84
2023-03-13T11:32:26.797Z,53.90
2023-03-13T11:37:33.124Z,53.64
2023-03-13T11:42:58.272Z,52.53
2023-03-13T11:48:15.196Z,52.06
2023-03-13T11:53:51.570Z,51.55
2023-03-13T11:59:04.437Z,51.68
2023-03-13T12:04:20.128Z,51.69
2023-03-13T12:09:42.221Z,51.42
2023-03-13T12:15:22.773Z,52.14
2023-03-13T12:20:27.553Z,52.30
2023-03-13T12:25:43.668Z,53.54
2023-03-13T12:30:52.476Z,54.22
2023-03-13T12:36:14.747Z,56.01
2023-03-13T12:41:27.638Z,58.16
2023-03-13T12:46:46.745Z,59.71
2023-03-13T12:51:54.937Z,60.84
2023-03-13T12:57:10.822Z,61.76
2023-03-13T13:02:20.570Z,62.13
2023-03-13T13:07:28.093Z,61.29
2023-03-13T13:13:15.274Z,60.56
2023-03-13T13:18:31.938Z,59.85
2023-03-13T13:23:39.474Z,59.33
2023-03-13T13:28:43.856Z,60.03
2023-03-13T13:33:52.732Z,60.52
2023-03-13T13:38:56.857Z,60.73
2023-03-13T13:44:25.555Z,60.59
2023-03-13T13:49:37.462Z,60.12
2023-03-13T13:54:48.046Z,60.50
2023-03-13T14:00:19.622Z,61.61
2023-03-13T14:05:23.066Z,63.30
2023-03-13T14:10:40.517Z,63.46
2023-03-13T14:15:49.947Z,63.33
2023-03-13T14:21:06.008Z,63.11
2023-03-13T14:26:17.829Z,62.80
2023-03-13T14:31:24.014Z,62.37
2023-03-13T14:36:27.256Z,61.91
2023-03-13T14:41:41.647Z,61.36
2023-03-13T14:46:45.064Z,60.58
2023-03-13T14:51:58.048Z,60.21
2023-03-13T14:57:15.166Z,59.75
2023-03-13T15:02:24.375Z,59.71
2023-03-13T15:07:37.507Z,59.67
2023-03-13T15:12:46.549Z,59.67
2023-03-13T15:17:48.396Z,59.63
2023-03-13T15:22:50.172Z,59.68
2023-03-13T15:27:51.964Z,59.68
2023-03-13T15:32:53.818Z,59.71
2023-03-13T15:37:57.991Z,59.67
2023-03-13T15:42:59.985Z,59.61
2023-03-13T15:48:03.248Z,59.62
2023-03-13T15:53:33.846Z,59.67
2023-03-13T15:58:37.984Z,59.58
2023-03-13T16:03:40.673Z,59.56
2023-03-13T16:08:43.916Z,59.75
2023-03-13T16:13:46.971Z,59.50
2023-03-13T16:18:53.953Z,60.19
2023-03-13T16:23:58.845Z,61.33
2023-03-13T16:29:01.400Z,61.84
2023-03-13T16:34:03.603Z,62.24
2023-03-13T16:39:12.224Z,62.46
2023-03-13T16:44:14.035Z,61.77
2023-03-13T16:49:15.842Z,61.33
2023-03-13T16:54:20.458Z,61.03
2023-03-13T16:59:27.302Z,60.86
2023-03-13T17:04:29.395Z,60.78
2023-03-13T17:09:35.695Z,60.91
2023-03-13T17:14:37.518Z,61.00
2023-03-13T17:19:44.336Z,61.20
2023-03-13T17:24:46.196Z,58.54
2023-03-13T17:29:48.996Z,60.46
2023-03-13T17:34:53.754Z,62.30
2023-03-13T17:39:55.635Z,60.81
2023-03-13T17:44:57.397Z,58.16
2023-03-13T17:49:59.148Z,60.66
2023-03-13T17:55:00.935Z,62.33
2023-03-13T18:00:06.526Z,61.09
2023-03-13T18:05:13.963Z,60.31
2023-03-13T18:10:22.036Z,59.98
2023-03-13T18:15:25.985Z,59.79
2023-03-13T18:20:34.794Z,59.59
2023-03-13T18:25:36.495Z,59.59
2023-03-13T18:30:39.542Z,61.13
2023-03-13T18:35:41.560Z,62.24
2023-03-13T18:40:43.540Z,62.18
2023-03-13T18:45:45.332Z,61.24
2023-03-13T18:50:47.098Z,60.98
2023-03-13T18:55:48.839Z,60.53
2023-03-13T19:00:50.725Z,60.31
2023-03-13T19:05:52.746Z,60.17
2023-03-13T19:10:54.484Z,60.00
2023-03-13T19:15:56.217Z,59.91
2023-03-13T19:20:58.679Z,59.63
2023-03-13T19:26:00.494Z,59.70
2023-03-13T19:31:02.358Z,60.98
2023-03-13T19:36:06.322Z,61.73
2023-03-13T19:41:09.942Z,61.84
2023-03-13T19:46:22.750Z,61.79
2023-03-13T19:51:25.879Z,61.51
2023-03-13T19:56:29.734Z,61.33
2023-03-13T20:01:33.808Z,61.27
2023-03-13T20:06:36.873Z,61.11
2023-03-13T20:11:38.958Z,60.70
2023-03-13T20:16:40.817Z,60.68
2023-03-13T20:21:42.988Z,60.59
2023-03-13T20:26:44.736Z,60.74
2023-03-13T20:31:46.433Z,60.74
2023-03-13T20:36:48.183Z,60.89
2023-03-13T20:41:50.037Z,60.78
2023-03-13T20:46:51.838Z,60.89
2023-03-13T20:51:53.725Z,61.17
2023-03-13T20:56:55.598Z,61.45
2023-03-13T21:01:57.371Z,61.69
2023-03-13T21:07:04.544Z,61.95
2023-03-13T21:12:06.760Z,62.26
2023-03-13T21:17:10.891Z,62.52
2023-03-13T21:22:12.861Z,61.48
2023-03-13T21:27:15.457Z,59.86
2023-03-13T21:32:18.256Z,59.33
2023-03-13T21:37:20.134Z,59.99
2023-03-13T21:42:21.904Z,60.98
2023-03-13T21:47:26.334Z,61.52
2023-03-13T21:52:28.117Z,62.07
2023-03-13T21:57:29.950Z,62.37
2023-03-13T22:02:31.812Z,61.42
2023-03-13T22:07:35.253Z,60.63
2023-03-13T22:12:37.920Z,60.13
2023-03-13T22:17:41.049Z,59.74
2023-03-13T22:22:42.921Z,59.44
2023-03-13T22:27:44.745Z,60.38
2023-03-13T22:32:47.362Z,61.27
2023-03-13T22:37:52.390Z,61.93
2023-03-13T22:42:54.722Z,62.45
2023-03-13T22:47:57.863Z,61.96
2023-03-13T22:53:37.014Z,60.90
2023-03-13T22:58:40.152Z,60.54
2023-03-13T23:03:42.751Z,60.44
2023-03-13T23:08:44.877Z,60.36
2023-03-13T23:13:47.115Z,60.38
2023-03-13T23:18:49.035Z,60.46
2023-03-13T23:23:56.353Z,60.41
2023-03-13T23:28:58.168Z,60.52
2023-03-13T23:34:00.532Z,60.53
2023-03-13T23:39:02.989Z,60.25
2023-03-13T23:44:04.854Z,59.83
2023-03-13T23:49:06.706Z,59.74
2023-03-13T23:54:08.651Z,59.79
2023-03-13T23:59:10.369Z,58.82
